sensor_id;sensor_type;location;lat;lon;timestamp;P1;durP1;ratioP1;P2;durP2;ratioP2
77453;SDS011;66538;53.150;18.160;2023-08-06T00:01:31;5.70;;;2.90;;
77453;SDS011;66538;53.150;18.160;2023-08-06T00:03:58;4.10;;;2.40;;
77453;SDS011;66538;53.150;18.160;2023-08-06T00:06:26;5.00;;;2.20;;
77453;SDS011;66538;53.150;18.160;2023-08-06T00:08:52;5.50;;;3.10;;
77453;SDS011;66538;53.150;18.160;2023-08-06T00:11:19;4.80;;;3.00;;
77453;SDS011;66538;53.150;18.160;2023-08-06T00:13:45;5.20;;;2.80;;
77453;SDS011;66538;53.150;18.160;2023-08-06T00:16:12;6.60;;;3.20;;
77453;SDS011;66538;53.150;18.160;2023-08-06T00:18:39;5.70;;;3.10;;
77453;SDS011;66538;53.150;18.160;2023-08-06T00:21:06;5.50;;;3.00;;
77453;SDS011;66538;53.150;18.160;2023-08-06T00:23:33;5.70;;;3.00;;
77453;SDS011;66538;53.150;18.160;2023-08-06T00:26:00;6.50;;;3.10;;
77453;SDS011;66538;53.150;18.160;2023-08-06T00:28:26;6.70;;;3.00;;
77453;SDS011;66538;53.150;18.160;2023-08-06T00:30:53;7.00;;;3.30;;
77453;SDS011;66538;53.150;18.160;2023-08-06T00:33:21;5.50;;;3.40;;
77453;SDS011;66538;53.150;18.160;2023-08-06T00:35:48;5.50;;;3.10;;
77453;SDS011;66538;53.150;18.160;2023-08-06T00:38:15;6.00;;;2.60;;
77453;SDS011;66538;53.150;18.160;2023-08-06T00:40:42;4.90;;;2.40;;
77453;SDS011;66538;53.150;18.160;2023-08-06T00:43:08;7.00;;;3.50;;
77453;SDS011;66538;53.150;18.160;2023-08-06T00:45:36;7.80;;;3.50;;
77453;SDS011;66538;53.150;18.160;2023-08-06T00:48:03;7.40;;;3.10;;
77453;SDS011;66538;53.150;18.160;2023-08-06T00:50:33;6.40;;;4.00;;
77453;SDS011;66538;53.150;18.160;2023-08-06T00:53:00;5.10;;;3.00;;
77453;SDS011;66538;53.150;18.160;2023-08-06T00:55:28;5.70;;;3.50;;
77453;SDS011;66538;53.150;18.160;2023-08-06T00:57:55;5.70;;;3.30;;
77453;SDS011;66538;53.150;18.160;2023-08-06T01:00:22;6.10;;;3.20;;
77453;SDS011;66538;53.150;18.160;2023-08-06T01:02:50;5.60;;;2.80;;
77453;SDS011;66538;53.150;18.160;2023-08-06T01:05:18;6.00;;;3.40;;
77453;SDS011;66538;53.150;18.160;2023-08-06T01:07:51;4.80;;;3.10;;
77453;SDS011;66538;53.150;18.160;2023-08-06T01:10:45;5.40;;;3.00;;
77453;SDS011;66538;53.150;18.160;2023-08-06T01:16:10;5.10;;;2.90;;
77453;SDS011;66538;53.150;18.160;2023-08-06T01:18:37;6.10;;;3.80;;
77453;SDS011;66538;53.150;18.160;2023-08-06T01:21:05;6.50;;;3.70;;
77453;SDS011;66538;53.150;18.160;2023-08-06T01:23:32;6.30;;;4.00;;
77453;SDS011;66538;53.150;18.160;2023-08-06T01:26:02;4.60;;;2.50;;
77453;SDS011;66538;53.150;18.160;2023-08-06T01:28:40;9.20;;;4.10;;
77453;SDS011;66538;53.150;18.160;2023-08-06T01:31:18;5.80;;;3.40;;
77453;SDS011;66538;53.150;18.160;2023-08-06T01:33:50;7.60;;;3.60;;
77453;SDS011;66538;53.150;18.160;2023-08-06T01:36:20;5.40;;;2.90;;
77453;SDS011;66538;53.150;18.160;2023-08-06T01:38:47;5.90;;;3.00;;
77453;SDS011;66538;53.150;18.160;2023-08-06T01:41:14;7.40;;;3.60;;
77453;SDS011;66538;53.150;18.160;2023-08-06T01:43:41;6.70;;;3.50;;
77453;SDS011;66538;53.150;18.160;2023-08-06T01:46:07;6.10;;;3.70;;
77453;SDS011;66538;53.150;18.160;2023-08-06T01:48:34;6.90;;;3.30;;
77453;SDS011;66538;53.150;18.160;2023-08-06T01:51:00;4.30;;;2.60;;
77453;SDS011;66538;53.150;18.160;2023-08-06T01:53:28;6.40;;;3.70;;
77453;SDS011;66538;53.150;18.160;2023-08-06T01:55:54;7.10;;;3.60;;
77453;SDS011;66538;53.150;18.160;2023-08-06T01:58:21;6.10;;;3.70;;
77453;SDS011;66538;53.150;18.160;2023-08-06T02:00:47;5.50;;;3.70;;
77453;SDS011;66538;53.150;18.160;2023-08-06T02:03:14;7.10;;;4.00;;
77453;SDS011;66538;53.150;18.160;2023-08-06T02:05:41;9.10;;;5.00;;
77453;SDS011;66538;53.150;18.160;2023-08-06T02:08:08;7.40;;;4.00;;
77453;SDS011;66538;53.150;18.160;2023-08-06T02:10:35;5.40;;;3.20;;
77453;SDS011;66538;53.150;18.160;2023-08-06T02:13:02;6.90;;;4.10;;
77453;SDS011;66538;53.150;18.160;2023-08-06T02:15:28;6.00;;;3.50;;
77453;SDS011;66538;53.150;18.160;2023-08-06T02:17:55;6.00;;;3.50;;
77453;SDS011;66538;53.150;18.160;2023-08-06T02:20:21;6.50;;;3.30;;
77453;SDS011;66538;53.150;18.160;2023-08-06T02:22:48;5.10;;;2.90;;
77453;SDS011;66538;53.150;18.160;2023-08-06T02:25:14;5.40;;;2.90;;
77453;SDS011;66538;53.150;18.160;2023-08-06T02:27:42;5.40;;;2.90;;
77453;SDS011;66538;53.150;18.160;2023-08-06T02:30:09;4.80;;;2.70;;
77453;SDS011;66538;53.150;18.160;2023-08-06T02:32:35;5.10;;;3.00;;
77453;SDS011;66538;53.150;18.160;2023-08-06T02:35:02;4.80;;;2.60;;
77453;SDS011;66538;53.150;18.160;2023-08-06T02:37:29;5.30;;;2.50;;
77453;SDS011;66538;53.150;18.160;2023-08-06T02:39:55;5.80;;;2.90;;
77453;SDS011;66538;53.150;18.160;2023-08-06T02:42:22;4.80;;;2.80;;
77453;SDS011;66538;53.150;18.160;2023-08-06T02:44:49;4.50;;;2.60;;
77453;SDS011;66538;53.150;18.160;2023-08-06T02:47:16;5.10;;;3.40;;
77453;SDS011;66538;53.150;18.160;2023-08-06T02:49:43;5.00;;;2.80;;
77453;SDS011;66538;53.150;18.160;2023-08-06T02:52:10;5.80;;;3.20;;
77453;SDS011;66538;53.150;18.160;2023-08-06T02:54:36;8.70;;;3.30;;
77453;SDS011;66538;53.150;18.160;2023-08-06T02:57:04;5.50;;;2.80;;
77453;SDS011;66538;53.150;18.160;2023-08-06T02:59:32;7.90;;;4.20;;
77453;SDS011;66538;53.150;18.160;2023-08-06T03:02:04;5.90;;;3.30;;
77453;SDS011;66538;53.150;18.160;2023-08-06T03:04:42;4.80;;;2.60;;
77453;SDS011;66538;53.150;18.160;2023-08-06T03:07:09;6.20;;;2.90;;
77453;SDS011;66538;53.150;18.160;2023-08-06T03:09:42;4.20;;;2.40;;
77453;SDS011;66538;53.150;18.160;2023-08-06T03:12:08;5.20;;;2.60;;
77453;SDS011;66538;53.150;18.160;2023-08-06T03:14:35;5.90;;;3.00;;
77453;SDS011;66538;53.150;18.160;2023-08-06T03:19:30;4.50;;;2.90;;
77453;SDS011;66538;53.150;18.160;2023-08-06T03:21:57;6.30;;;3.60;;
77453;SDS011;66538;53.150;18.160;2023-08-06T03:24:25;5.30;;;3.10;;
77453;SDS011;66538;53.150;18.160;2023-08-06T03:26:51;5.70;;;3.10;;
77453;SDS011;66538;53.150;18.160;2023-08-06T03:29:18;4.60;;;2.00;;
77453;SDS011;66538;53.150;18.160;2023-08-06T03:31:45;4.50;;;2.60;;
77453;SDS011;66538;53.150;18.160;2023-08-06T03:34:13;4.80;;;2.80;;
77453;SDS011;66538;53.150;18.160;2023-08-06T03:36:41;6.00;;;2.60;;
77453;SDS011;66538;53.150;18.160;2023-08-06T03:39:07;5.40;;;2.40;;
77453;SDS011;66538;53.150;18.160;2023-08-06T03:41:34;5.90;;;3.30;;
77453;SDS011;66538;53.150;18.160;2023-08-06T03:44:01;6.30;;;3.10;;
77453;SDS011;66538;53.150;18.160;2023-08-06T03:46:30;5.80;;;3.40;;
77453;SDS011;66538;53.150;18.160;2023-08-06T03:49:00;5.10;;;3.10;;
77453;SDS011;66538;53.150;18.160;2023-08-06T03:51:27;4.80;;;3.20;;
77453;SDS011;66538;53.150;18.160;2023-08-06T03:53:54;5.60;;;3.00;;
77453;SDS011;66538;53.150;18.160;2023-08-06T03:56:20;5.60;;;3.10;;
77453;SDS011;66538;53.150;18.160;2023-08-06T03:58:47;4.90;;;3.00;;
77453;SDS011;66538;53.150;18.160;2023-08-06T04:01:13;4.80;;;2.80;;
77453;SDS011;66538;53.150;18.160;2023-08-06T04:03:43;5.50;;;3.40;;
77453;SDS011;66538;53.150;18.160;2023-08-06T04:06:10;4.70;;;3.00;;
77453;SDS011;66538;53.150;18.160;2023-08-06T04:08:36;5.40;;;3.10;;
77453;SDS011;66538;53.150;18.160;2023-08-06T04:11:03;6.10;;;3.60;;
77453;SDS011;66538;53.150;18.160;2023-08-06T04:13:30;6.40;;;3.50;;
77453;SDS011;66538;53.150;18.160;2023-08-06T04:16:03;4.40;;;2.60;;
77453;SDS011;66538;53.150;18.160;2023-08-06T04:18:31;5.90;;;3.00;;
77453;SDS011;66538;53.150;18.160;2023-08-06T04:20:58;6.50;;;3.90;;
77453;SDS011;66538;53.150;18.160;2023-08-06T04:23:25;5.00;;;3.00;;
77453;SDS011;66538;53.150;18.160;2023-08-06T04:25:57;4.80;;;2.80;;
77453;SDS011;66538;53.150;18.160;2023-08-06T04:28:25;5.10;;;2.90;;
77453;SDS011;66538;53.150;18.160;2023-08-06T04:30:53;6.20;;;3.30;;
77453;SDS011;66538;53.150;18.160;2023-08-06T04:33:20;7.00;;;3.80;;
77453;SDS011;66538;53.150;18.160;2023-08-06T04:35:47;5.80;;;3.30;;
77453;SDS011;66538;53.150;18.160;2023-08-06T04:38:19;4.30;;;2.70;;
77453;SDS011;66538;53.150;18.160;2023-08-06T04:40:46;6.70;;;2.70;;
77453;SDS011;66538;53.150;18.160;2023-08-06T04:43:12;4.30;;;2.60;;
77453;SDS011;66538;53.150;18.160;2023-08-06T04:45:45;5.50;;;3.40;;
77453;SDS011;66538;53.150;18.160;2023-08-06T04:48:13;4.00;;;2.50;;
77453;SDS011;66538;53.150;18.160;2023-08-06T04:50:43;6.50;;;2.80;;
77453;SDS011;66538;53.150;18.160;2023-08-06T04:53:13;4.50;;;2.70;;
77453;SDS011;66538;53.150;18.160;2023-08-06T04:55:40;5.10;;;3.00;;
77453;SDS011;66538;53.150;18.160;2023-08-06T04:58:08;5.00;;;2.50;;
77453;SDS011;66538;53.150;18.160;2023-08-06T05:00:36;3.70;;;2.10;;
77453;SDS011;66538;53.150;18.160;2023-08-06T05:03:02;4.80;;;2.50;;
77453;SDS011;66538;53.150;18.160;2023-08-06T05:05:29;4.40;;;2.60;;
77453;SDS011;66538;53.150;18.160;2023-08-06T05:07:56;4.70;;;2.70;;
77453;SDS011;66538;53.150;18.160;2023-08-06T05:10:26;4.80;;;3.20;;
77453;SDS011;66538;53.150;18.160;2023-08-06T05:12:53;5.70;;;3.10;;
77453;SDS011;66538;53.150;18.160;2023-08-06T05:15:20;5.30;;;3.00;;
77453;SDS011;66538;53.150;18.160;2023-08-06T05:17:47;4.90;;;3.30;;
77453;SDS011;66538;53.150;18.160;2023-08-06T05:20:13;7.50;;;4.60;;
77453;SDS011;66538;53.150;18.160;2023-08-06T05:22:40;4.60;;;3.00;;
77453;SDS011;66538;53.150;18.160;2023-08-06T05:25:07;5.60;;;3.50;;
77453;SDS011;66538;53.150;18.160;2023-08-06T05:27:34;5.90;;;4.00;;
77453;SDS011;66538;53.150;18.160;2023-08-06T05:30:01;5.80;;;3.80;;
77453;SDS011;66538;53.150;18.160;2023-08-06T05:32:27;5.10;;;3.60;;
77453;SDS011;66538;53.150;18.160;2023-08-06T05:34:54;5.20;;;3.50;;
77453;SDS011;66538;53.150;18.160;2023-08-06T05:37:20;5.20;;;3.40;;
77453;SDS011;66538;53.150;18.160;2023-08-06T05:39:47;6.00;;;3.30;;
77453;SDS011;66538;53.150;18.160;2023-08-06T05:42:14;4.90;;;3.30;;
77453;SDS011;66538;53.150;18.160;2023-08-06T05:44:40;5.20;;;2.60;;
77453;SDS011;66538;53.150;18.160;2023-08-06T05:47:07;5.00;;;2.80;;
77453;SDS011;66538;53.150;18.160;2023-08-06T05:49:33;5.90;;;3.40;;
77453;SDS011;66538;53.150;18.160;2023-08-06T05:52:00;5.00;;;3.20;;
77453;SDS011;66538;53.150;18.160;2023-08-06T05:54:26;5.70;;;3.50;;
77453;SDS011;66538;53.150;18.160;2023-08-06T05:56:53;4.20;;;2.40;;
77453;SDS011;66538;53.150;18.160;2023-08-06T05:59:20;6.50;;;3.80;;
77453;SDS011;66538;53.150;18.160;2023-08-06T06:01:46;5.30;;;3.50;;
77453;SDS011;66538;53.150;18.160;2023-08-06T06:04:13;5.80;;;3.40;;
77453;SDS011;66538;53.150;18.160;2023-08-06T06:06:40;7.10;;;3.70;;
77453;SDS011;66538;53.150;18.160;2023-08-06T06:09:08;4.40;;;2.90;;
77453;SDS011;66538;53.150;18.160;2023-08-06T06:11:34;4.30;;;2.80;;
77453;SDS011;66538;53.150;18.160;2023-08-06T06:14:01;5.90;;;4.00;;
77453;SDS011;66538;53.150;18.160;2023-08-06T06:16:27;5.20;;;3.90;;
77453;SDS011;66538;53.150;18.160;2023-08-06T06:18:54;5.50;;;3.70;;
77453;SDS011;66538;53.150;18.160;2023-08-06T06:21:21;6.60;;;3.60;;
77453;SDS011;66538;53.150;18.160;2023-08-06T06:23:47;5.30;;;3.60;;
77453;SDS011;66538;53.150;18.160;2023-08-06T06:26:14;6.50;;;3.90;;
77453;SDS011;66538;53.150;18.160;2023-08-06T06:28:40;6.30;;;3.90;;
77453;SDS011;66538;53.150;18.160;2023-08-06T06:31:07;6.60;;;3.70;;
77453;SDS011;66538;53.150;18.160;2023-08-06T06:33:34;5.80;;;3.90;;
77453;SDS011;66538;53.150;18.160;2023-08-06T06:36:00;7.40;;;3.70;;
77453;SDS011;66538;53.150;18.160;2023-08-06T06:38:29;4.80;;;3.30;;
77453;SDS011;66538;53.150;18.160;2023-08-06T06:40:56;6.10;;;3.60;;
77453;SDS011;66538;53.150;18.160;2023-08-06T06:43:23;5.90;;;3.60;;
77453;SDS011;66538;53.150;18.160;2023-08-06T06:45:53;6.30;;;3.70;;
77453;SDS011;66538;53.150;18.160;2023-08-06T06:48:22;8.30;;;4.40;;
77453;SDS011;66538;53.150;18.160;2023-08-06T06:50:48;6.60;;;4.20;;
77453;SDS011;66538;53.150;18.160;2023-08-06T06:53:15;6.30;;;4.30;;
77453;SDS011;66538;53.150;18.160;2023-08-06T06:55:42;6.80;;;4.40;;
77453;SDS011;66538;53.150;18.160;2023-08-06T06:58:09;6.10;;;3.80;;
77453;SDS011;66538;53.150;18.160;2023-08-06T07:00:39;6.50;;;4.00;;
77453;SDS011;66538;53.150;18.160;2023-08-06T07:03:05;7.40;;;4.30;;
77453;SDS011;66538;53.150;18.160;2023-08-06T07:05:32;6.70;;;3.60;;
77453;SDS011;66538;53.150;18.160;2023-08-06T07:07:59;7.50;;;4.30;;
77453;SDS011;66538;53.150;18.160;2023-08-06T07:10:25;5.60;;;4.00;;
77453;SDS011;66538;53.150;18.160;2023-08-06T07:12:52;5.80;;;4.10;;
77453;SDS011;66538;53.150;18.160;2023-08-06T07:15:19;5.50;;;3.50;;
77453;SDS011;66538;53.150;18.160;2023-08-06T07:17:45;8.00;;;3.90;;
77453;SDS011;66538;53.150;18.160;2023-08-06T07:20:12;6.30;;;3.50;;
77453;SDS011;66538;53.150;18.160;2023-08-06T07:22:39;8.00;;;4.20;;
77453;SDS011;66538;53.150;18.160;2023-08-06T07:25:06;6.80;;;3.90;;
77453;SDS011;66538;53.150;18.160;2023-08-06T07:27:33;5.30;;;3.20;;
77453;SDS011;66538;53.150;18.160;2023-08-06T07:30:00;7.00;;;4.10;;
77453;SDS011;66538;53.150;18.160;2023-08-06T07:32:28;5.70;;;3.70;;
77453;SDS011;66538;53.150;18.160;2023-08-06T07:34:55;6.90;;;3.80;;
77453;SDS011;66538;53.150;18.160;2023-08-06T07:37:27;5.20;;;3.30;;
77453;SDS011;66538;53.150;18.160;2023-08-06T07:39:56;3.80;;;2.10;;
77453;SDS011;66538;53.150;18.160;2023-08-06T07:42:23;4.70;;;3.10;;
77453;SDS011;66538;53.150;18.160;2023-08-06T07:44:59;5.50;;;3.70;;
77453;SDS011;66538;53.150;18.160;2023-08-06T07:47:27;5.30;;;3.60;;
77453;SDS011;66538;53.150;18.160;2023-08-06T07:49:56;5.70;;;4.30;;
77453;SDS011;66538;53.150;18.160;2023-08-06T07:52:23;5.30;;;3.70;;
77453;SDS011;66538;53.150;18.160;2023-08-06T07:54:50;5.70;;;3.90;;
77453;SDS011;66538;53.150;18.160;2023-08-06T07:57:17;5.50;;;3.40;;
77453;SDS011;66538;53.150;18.160;2023-08-06T07:59:43;6.80;;;3.80;;
77453;SDS011;66538;53.150;18.160;2023-08-06T08:02:10;5.50;;;3.40;;
77453;SDS011;66538;53.150;18.160;2023-08-06T08:04:37;5.40;;;3.40;;
77453;SDS011;66538;53.150;18.160;2023-08-06T08:07:03;7.10;;;4.00;;
77453;SDS011;66538;53.150;18.160;2023-08-06T08:09:30;6.00;;;3.30;;
77453;SDS011;66538;53.150;18.160;2023-08-06T08:11:57;7.30;;;3.60;;
77453;SDS011;66538;53.150;18.160;2023-08-06T08:14:27;5.40;;;3.50;;
77453;SDS011;66538;53.150;18.160;2023-08-06T08:16:55;5.20;;;3.80;;
77453;SDS011;66538;53.150;18.160;2023-08-06T08:19:21;7.80;;;4.50;;
77453;SDS011;66538;53.150;18.160;2023-08-06T08:21:48;4.70;;;2.80;;
77453;SDS011;66538;53.150;18.160;2023-08-06T08:24:15;5.50;;;3.50;;
77453;SDS011;66538;53.150;18.160;2023-08-06T08:26:42;5.50;;;3.30;;
77453;SDS011;66538;53.150;18.160;2023-08-06T08:29:08;4.50;;;3.10;;
77453;SDS011;66538;53.150;18.160;2023-08-06T08:31:35;5.10;;;3.00;;
77453;SDS011;66538;53.150;18.160;2023-08-06T08:34:05;5.20;;;3.30;;
77453;SDS011;66538;53.150;18.160;2023-08-06T08:36:32;5.10;;;3.30;;
77453;SDS011;66538;53.150;18.160;2023-08-06T08:38:59;5.70;;;2.90;;
77453;SDS011;66538;53.150;18.160;2023-08-06T08:41:28;5.80;;;3.70;;
77453;SDS011;66538;53.150;18.160;2023-08-06T08:43:56;4.60;;;2.80;;
77453;SDS011;66538;53.150;18.160;2023-08-06T08:46:26;4.60;;;3.10;;
77453;SDS011;66538;53.150;18.160;2023-08-06T08:48:55;6.20;;;3.60;;
77453;SDS011;66538;53.150;18.160;2023-08-06T08:51:23;5.90;;;3.40;;
77453;SDS011;66538;53.150;18.160;2023-08-06T08:53:51;5.00;;;3.50;;
77453;SDS011;66538;53.150;18.160;2023-08-06T08:56:24;5.10;;;3.00;;
77453;SDS011;66538;53.150;18.160;2023-08-06T08:58:51;5.50;;;3.80;;
77453;SDS011;66538;53.150;18.160;2023-08-06T09:01:20;5.20;;;3.30;;
77453;SDS011;66538;53.150;18.160;2023-08-06T09:03:51;6.40;;;3.70;;
77453;SDS011;66538;53.150;18.160;2023-08-06T09:06:20;6.20;;;3.70;;
77453;SDS011;66538;53.150;18.160;2023-08-06T09:08:51;6.60;;;3.90;;
77453;SDS011;66538;53.150;18.160;2023-08-06T09:11:26;5.00;;;3.30;;
77453;SDS011;66538;53.150;18.160;2023-08-06T09:13:53;5.80;;;3.70;;
77453;SDS011;66538;53.150;18.160;2023-08-06T09:16:21;7.10;;;4.20;;
77453;SDS011;66538;53.150;18.160;2023-08-06T09:18:48;6.90;;;4.40;;
77453;SDS011;66538;53.150;18.160;2023-08-06T09:21:15;7.10;;;4.10;;
77453;SDS011;66538;53.150;18.160;2023-08-06T09:23:44;7.40;;;4.50;;
77453;SDS011;66538;53.150;18.160;2023-08-06T09:26:11;8.40;;;4.40;;
77453;SDS011;66538;53.150;18.160;2023-08-06T09:28:39;7.20;;;4.90;;
77453;SDS011;66538;53.150;18.160;2023-08-06T09:31:09;6.90;;;3.70;;
77453;SDS011;66538;53.150;18.160;2023-08-06T09:33:37;6.40;;;4.40;;
77453;SDS011;66538;53.150;18.160;2023-08-06T09:36:11;6.10;;;4.00;;
77453;SDS011;66538;53.150;18.160;2023-08-06T09:38:38;6.90;;;4.10;;
77453;SDS011;66538;53.150;18.160;2023-08-06T09:41:06;7.30;;;4.80;;
77453;SDS011;66538;53.150;18.160;2023-08-06T09:43:43;4.70;;;2.60;;
77453;SDS011;66538;53.150;18.160;2023-08-06T09:46:13;6.60;;;4.00;;
77453;SDS011;66538;53.150;18.160;2023-08-06T09:48:46;4.90;;;3.20;;
77453;SDS011;66538;53.150;18.160;2023-08-06T09:51:13;5.70;;;3.40;;
77453;SDS011;66538;53.150;18.160;2023-08-06T09:53:40;5.60;;;3.60;;
77453;SDS011;66538;53.150;18.160;2023-08-06T09:56:08;6.80;;;4.30;;
77453;SDS011;66538;53.150;18.160;2023-08-06T09:58:38;9.30;;;4.40;;
77453;SDS011;66538;53.150;18.160;2023-08-06T10:01:04;6.00;;;4.40;;
77453;SDS011;66538;53.150;18.160;2023-08-06T10:03:32;6.60;;;4.40;;
77453;SDS011;66538;53.150;18.160;2023-08-06T10:06:00;6.40;;;4.20;;
77453;SDS011;66538;53.150;18.160;2023-08-06T10:08:32;6.60;;;4.20;;
77453;SDS011;66538;53.150;18.160;2023-08-06T10:10:59;5.80;;;3.70;;
77453;SDS011;66538;53.150;18.160;2023-08-06T10:13:30;6.10;;;4.30;;
77453;SDS011;66538;53.150;18.160;2023-08-06T10:16:00;6.00;;;3.90;;
77453;SDS011;66538;53.150;18.160;2023-08-06T10:18:28;6.00;;;4.40;;
77453;SDS011;66538;53.150;18.160;2023-08-06T10:20:56;8.40;;;4.30;;
77453;SDS011;66538;53.150;18.160;2023-08-06T10:23:32;6.20;;;4.30;;
77453;SDS011;66538;53.150;18.160;2023-08-06T10:26:01;6.50;;;4.00;;
77453;SDS011;66538;53.150;18.160;2023-08-06T10:28:34;5.90;;;4.20;;
77453;SDS011;66538;53.150;18.160;2023-08-06T10:31:02;6.40;;;4.10;;
77453;SDS011;66538;53.150;18.160;2023-08-06T10:33:43;7.60;;;4.60;;
77453;SDS011;66538;53.150;18.160;2023-08-06T10:36:11;5.60;;;3.60;;
77453;SDS011;66538;53.150;18.160;2023-08-06T10:38:48;7.00;;;4.40;;
77453;SDS011;66538;53.150;18.160;2023-08-06T10:41:17;6.20;;;3.70;;
77453;SDS011;66538;53.150;18.160;2023-08-06T10:43:49;5.90;;;4.50;;
77453;SDS011;66538;53.150;18.160;2023-08-06T10:46:21;6.00;;;4.20;;
77453;SDS011;66538;53.150;18.160;2023-08-06T10:48:49;5.50;;;4.00;;
77453;SDS011;66538;53.150;18.160;2023-08-06T10:51:17;5.70;;;4.10;;
77453;SDS011;66538;53.150;18.160;2023-08-06T10:53:47;6.00;;;4.20;;
77453;SDS011;66538;53.150;18.160;2023-08-06T10:56:20;7.60;;;4.40;;
77453;SDS011;66538;53.150;18.160;2023-08-06T10:58:50;6.50;;;4.50;;
77453;SDS011;66538;53.150;18.160;2023-08-06T11:01:17;6.30;;;4.80;;
77453;SDS011;66538;53.150;18.160;2023-08-06T11:03:45;7.20;;;4.50;;
77453;SDS011;66538;53.150;18.160;2023-08-06T11:06:17;5.90;;;4.10;;
77453;SDS011;66538;53.150;18.160;2023-08-06T11:08:49;6.80;;;5.30;;
77453;SDS011;66538;53.150;18.160;2023-08-06T11:11:17;7.20;;;5.10;;
77453;SDS011;66538;53.150;18.160;2023-08-06T11:13:45;6.60;;;4.60;;
77453;SDS011;66538;53.150;18.160;2023-08-06T11:16:17;7.10;;;4.50;;
77453;SDS011;66538;53.150;18.160;2023-08-06T11:18:45;8.90;;;5.10;;
77453;SDS011;66538;53.150;18.160;2023-08-06T11:21:13;6.60;;;4.90;;
77453;SDS011;66538;53.150;18.160;2023-08-06T11:23:40;5.90;;;4.30;;
77453;SDS011;66538;53.150;18.160;2023-08-06T11:26:07;6.30;;;4.80;;
77453;SDS011;66538;53.150;18.160;2023-08-06T11:28:34;7.40;;;5.20;;
77453;SDS011;66538;53.150;18.160;2023-08-06T11:31:01;7.40;;;5.20;;
77453;SDS011;66538;53.150;18.160;2023-08-06T11:33:29;7.30;;;4.40;;
77453;SDS011;66538;53.150;18.160;2023-08-06T11:35:58;7.90;;;5.90;;
77453;SDS011;66538;53.150;18.160;2023-08-06T11:38:26;7.30;;;5.40;;
77453;SDS011;66538;53.150;18.160;2023-08-06T11:40:55;8.60;;;6.00;;
77453;SDS011;66538;53.150;18.160;2023-08-06T11:43:22;7.70;;;5.40;;
77453;SDS011;66538;53.150;18.160;2023-08-06T11:45:49;9.20;;;6.30;;
77453;SDS011;66538;53.150;18.160;2023-08-06T11:48:17;8.30;;;6.40;;
77453;SDS011;66538;53.150;18.160;2023-08-06T11:50:45;7.80;;;6.10;;
77453;SDS011;66538;53.150;18.160;2023-08-06T11:53:12;10.40;;;6.90;;
77453;SDS011;66538;53.150;18.160;2023-08-06T11:55:40;10.70;;;7.30;;
77453;SDS011;66538;53.150;18.160;2023-08-06T11:58:08;10.20;;;7.60;;
77453;SDS011;66538;53.150;18.160;2023-08-06T12:00:36;9.40;;;7.30;;
77453;SDS011;66538;53.150;18.160;2023-08-06T12:03:04;8.30;;;6.70;;
77453;SDS011;66538;53.150;18.160;2023-08-06T12:05:31;9.30;;;7.30;;
77453;SDS011;66538;53.150;18.160;2023-08-06T12:08:04;11.20;;;8.10;;
77453;SDS011;66538;53.150;18.160;2023-08-06T12:10:31;11.30;;;8.40;;
77453;SDS011;66538;53.150;18.160;2023-08-06T12:12:59;11.00;;;8.30;;
77453;SDS011;66538;53.150;18.160;2023-08-06T12:15:26;11.50;;;8.70;;
77453;SDS011;66538;53.150;18.160;2023-08-06T12:17:52;11.80;;;8.30;;
77453;SDS011;66538;53.150;18.160;2023-08-06T12:20:19;12.20;;;7.80;;
77453;SDS011;66538;53.150;18.160;2023-08-06T12:22:46;12.00;;;9.00;;
77453;SDS011;66538;53.150;18.160;2023-08-06T12:25:13;13.10;;;8.90;;
77453;SDS011;66538;53.150;18.160;2023-08-06T12:27:41;13.30;;;9.70;;
77453;SDS011;66538;53.150;18.160;2023-08-06T12:30:09;12.90;;;10.00;;
77453;SDS011;66538;53.150;18.160;2023-08-06T12:32:36;15.70;;;9.70;;
77453;SDS011;66538;53.150;18.160;2023-08-06T12:37:33;14.30;;;9.20;;
77453;SDS011;66538;53.150;18.160;2023-08-06T12:40:00;14.40;;;10.70;;
77453;SDS011;66538;53.150;18.160;2023-08-06T12:42:27;13.50;;;10.70;;
77453;SDS011;66538;53.150;18.160;2023-08-06T12:44:54;17.00;;;10.70;;
77453;SDS011;66538;53.150;18.160;2023-08-06T12:47:20;13.10;;;9.60;;
77453;SDS011;66538;53.150;18.160;2023-08-06T12:49:47;18.00;;;10.60;;
77453;SDS011;66538;53.150;18.160;2023-08-06T12:52:14;15.60;;;9.20;;
77453;SDS011;66538;53.150;18.160;2023-08-06T12:54:41;14.00;;;9.90;;
77453;SDS011;66538;53.150;18.160;2023-08-06T12:57:08;14.90;;;11.60;;
77453;SDS011;66538;53.150;18.160;2023-08-06T12:59:35;13.80;;;10.70;;
77453;SDS011;66538;53.150;18.160;2023-08-06T13:02:06;16.80;;;10.40;;
77453;SDS011;66538;53.150;18.160;2023-08-06T13:04:33;13.40;;;9.40;;
77453;SDS011;66538;53.150;18.160;2023-08-06T13:07:02;13.00;;;9.80;;
77453;SDS011;66538;53.150;18.160;2023-08-06T13:09:32;14.00;;;10.90;;
77453;SDS011;66538;53.150;18.160;2023-08-06T13:12:01;13.80;;;9.40;;
77453;SDS011;66538;53.150;18.160;2023-08-06T13:14:34;10.50;;;8.50;;
77453;SDS011;66538;53.150;18.160;2023-08-06T13:17:02;11.80;;;9.10;;
77453;SDS011;66538;53.150;18.160;2023-08-06T13:19:29;12.00;;;9.60;;
77453;SDS011;66538;53.150;18.160;2023-08-06T13:22:03;12.70;;;8.50;;
77453;SDS011;66538;53.150;18.160;2023-08-06T13:24:35;11.50;;;9.10;;
77453;SDS011;66538;53.150;18.160;2023-08-06T13:27:05;11.30;;;8.00;;
77453;SDS011;66538;53.150;18.160;2023-08-06T13:29:39;9.70;;;7.90;;
77453;SDS011;66538;53.150;18.160;2023-08-06T13:32:06;8.90;;;7.10;;
77453;SDS011;66538;53.150;18.160;2023-08-06T13:34:33;8.80;;;7.90;;
77453;SDS011;66538;53.150;18.160;2023-08-06T13:37:08;9.50;;;7.50;;
77453;SDS011;66538;53.150;18.160;2023-08-06T13:39:36;9.80;;;8.10;;
77453;SDS011;66538;53.150;18.160;2023-08-06T13:42:03;10.70;;;8.50;;
77453;SDS011;66538;53.150;18.160;2023-08-06T13:44:31;11.10;;;8.50;;
77453;SDS011;66538;53.150;18.160;2023-08-06T13:47:05;11.10;;;8.50;;
77453;SDS011;66538;53.150;18.160;2023-08-06T13:49:32;11.60;;;9.40;;
77453;SDS011;66538;53.150;18.160;2023-08-06T13:51:58;11.60;;;8.50;;
77453;SDS011;66538;53.150;18.160;2023-08-06T13:54:25;10.60;;;8.70;;
77453;SDS011;66538;53.150;18.160;2023-08-06T13:56:52;12.10;;;9.40;;
77453;SDS011;66538;53.150;18.160;2023-08-06T13:59:25;10.80;;;9.70;;
77453;SDS011;66538;53.150;18.160;2023-08-06T14:01:51;13.10;;;10.30;;
77453;SDS011;66538;53.150;18.160;2023-08-06T14:04:20;11.20;;;10.00;;
77453;SDS011;66538;53.150;18.160;2023-08-06T14:06:53;13.70;;;10.40;;
77453;SDS011;66538;53.150;18.160;2023-08-06T14:09:19;11.10;;;9.50;;
77453;SDS011;66538;53.150;18.160;2023-08-06T14:11:46;12.30;;;11.00;;
77453;SDS011;66538;53.150;18.160;2023-08-06T14:14:13;11.90;;;10.30;;
77453;SDS011;66538;53.150;18.160;2023-08-06T14:16:44;13.60;;;11.50;;
77453;SDS011;66538;53.150;18.160;2023-08-06T14:19:11;14.60;;;10.60;;
77453;SDS011;66538;53.150;18.160;2023-08-06T14:21:38;13.40;;;10.60;;
77453;SDS011;66538;53.150;18.160;2023-08-06T14:24:05;13.90;;;11.50;;
77453;SDS011;66538;53.150;18.160;2023-08-06T14:26:32;16.10;;;13.10;;
77453;SDS011;66538;53.150;18.160;2023-08-06T14:28:59;13.90;;;11.90;;
77453;SDS011;66538;53.150;18.160;2023-08-06T14:31:26;16.50;;;13.10;;
77453;SDS011;66538;53.150;18.160;2023-08-06T14:33:54;14.90;;;12.90;;
77453;SDS011;66538;53.150;18.160;2023-08-06T14:36:21;17.40;;;14.10;;
77453;SDS011;66538;53.150;18.160;2023-08-06T14:38:48;16.30;;;12.70;;
77453;SDS011;66538;53.150;18.160;2023-08-06T14:41:15;16.10;;;13.50;;
77453;SDS011;66538;53.150;18.160;2023-08-06T14:43:42;17.90;;;15.00;;